createdAt,value
2023-02-07T00:01:37.765Z,-0.20
2023-02-07T00:04:06.253Z,-0.20
2023-02-07T00:06:36.119Z,-0.20
2023-02-07T00:09:07.169Z,-0.20
2023-02-07T00:11:37.359Z,-0.20
2023-02-07T00:14:05.606Z,-0.10
2023-02-07T00:16:33.794Z,-0.20
2023-02-07T00:19:03.608Z,-0.10
2023-02-07T00:21:32.154Z,-0.10
2023-02-07T00:24:00.261Z,-0.10
2023-02-07T00:26:29.623Z,0.00
2023-02-07T00:28:58.659Z,0.00
2023-02-07T00:31:28.729Z,0.00
2023-02-07T00:34:00.950Z,0.00
2023-02-07T00:36:32.955Z,0.00
2023-02-07T00:39:03.613Z,0.00
2023-02-07T00:41:32.423Z,0.00
2023-02-07T00:44:00.666Z,0.00
2023-02-07T00:46:29.151Z,0.00
2023-02-07T00:48:57.383Z,-0.10
2023-02-07T00:51:26.759Z,-0.10
2023-02-07T00:53:57.302Z,-0.10
2023-02-07T00:56:27.570Z,-0.10
2023-02-07T00:58:56.150Z,-0.10
2023-02-07T01:01:26.080Z,-0.10
2023-02-07T01:03:55.314Z,-0.10
2023-02-07T01:06:23.675Z,-0.20
2023-02-07T01:08:52.304Z,-0.20
2023-02-07T01:11:22.050Z,-0.10
2023-02-07T01:13:50.243Z,0.00
2023-02-07T01:16:19.878Z,0.00
2023-02-07T01:18:48.670Z,0.00
2023-02-07T01:21:18.487Z,0.00
2023-02-07T01:23:46.757Z,0.00
2023-02-07T01:26:15.382Z,0.10
2023-02-07T01:28:45.034Z,0.10
2023-02-07T01:31:15.317Z,0.00
2023-02-07T01:33:43.927Z,0.00
2023-02-07T01:36:14.638Z,0.00
2023-02-07T01:38:44.349Z,0.00
2023-02-07T01:41:14.896Z,0.10
2023-02-07T01:43:59.808Z,0.10
2023-02-07T01:46:30.250Z,0.10
2023-02-07T01:49:13.451Z,0.10
2023-02-07T01:51:46.942Z,0.10
2023-02-07T01:54:17.639Z,0.10
2023-02-07T01:56:49.846Z,0.10
2023-02-07T01:59:18.907Z,0.10
2023-02-07T02:01:48.480Z,0.10
2023-02-07T02:04:18.200Z,0.10
2023-02-07T02:06:47.657Z,0.20
2023-02-07T02:09:17.589Z,0.20
2023-02-07T02:12:19.299Z,0.20
2023-02-07T02:15:04.067Z,0.20
2023-02-07T02:17:45.644Z,0.20
2023-02-07T02:21:08.176Z,0.30
2023-02-07T02:23:46.282Z,0.30
2023-02-07T02:26:50.788Z,0.40
2023-02-07T02:29:52.551Z,0.40
2023-02-07T02:33:06.437Z,0.50
2023-02-07T02:35:41.441Z,0.50
2023-02-07T02:38:17.359Z,0.60
2023-02-07T02:40:54.729Z,0.50
2023-02-07T02:43:30.399Z,0.50
2023-02-07T02:46:00.444Z,0.60
2023-02-07T02:48:32.073Z,0.60
2023-02-07T02:51:00.361Z,0.60
2023-02-07T02:53:29.002Z,0.70
2023-02-07T02:56:29.375Z,0.70
2023-02-07T02:59:29.691Z,0.70
2023-02-07T03:02:09.065Z,0.80
2023-02-07T03:05:08.810Z,0.80
2023-02-07T03:07:54.617Z,0.80
2023-02-07T03:10:33.026Z,0.80
2023-02-07T03:13:12.093Z,0.80
2023-02-07T03:15:50.680Z,0.80
2023-02-07T03:18:23.136Z,0.90
2023-02-07T03:20:56.385Z,1.00
2023-02-07T03:23:25.248Z,1.00
2023-02-07T03:25:54.642Z,1.00
2023-02-07T03:28:23.906Z,1.10
2023-02-07T03:30:54.168Z,1.10
2023-02-07T03:33:25.541Z,1.10
2023-02-07T03:36:03.619Z,1.10
2023-02-07T03:38:32.148Z,1.10
2023-02-07T03:41:07.112Z,1.20
2023-02-07T03:43:38.321Z,1.20
2023-02-07T03:46:08.739Z,1.20
2023-02-07T03:48:36.973Z,1.20
2023-02-07T03:51:07.385Z,1.20
2023-02-07T03:53:35.579Z,1.20
2023-02-07T03:56:03.785Z,1.20
2023-02-07T03:58:32.104Z,1.20
2023-02-07T04:01:00.534Z,1.40
2023-02-07T04:03:28.716Z,1.40
2023-02-07T04:05:57.460Z,1.40
2023-02-07T04:08:27.464Z,1.50
2023-02-07T04:11:00.358Z,1.50
2023-02-07T04:13:29.568Z,1.50
2023-02-07T04:15:58.470Z,1.50
2023-02-07T04:18:27.160Z,1.50
2023-02-07T04:21:02.076Z,1.50
2023-02-07T04:23:32.441Z,1.50
2023-02-07T04:26:00.747Z,1.60
2023-02-07T04:28:29.585Z,1.50
2023-02-07T04:30:58.134Z,1.50
2023-02-07T04:33:26.913Z,1.60
2023-02-07T04:35:59.503Z,1.60
2023-02-07T04:38:29.044Z,1.60
2023-02-07T04:41:03.831Z,1.60
2023-02-07T04:43:32.884Z,1.70
2023-02-07T04:46:01.384Z,1.70
2023-02-07T04:48:29.763Z,1.70
2023-02-07T04:50:58.371Z,1.70
2023-02-07T04:53:26.793Z,1.70
2023-02-07T04:55:56.214Z,1.70
2023-02-07T04:58:26.636Z,1.80
2023-02-07T05:00:55.443Z,1.80
2023-02-07T05:03:23.632Z,1.80
2023-02-07T05:05:55.426Z,1.80
2023-02-07T05:08:25.257Z,1.80
2023-02-07T05:10:55.507Z,1.80
2023-02-07T05:13:25.857Z,1.70
2023-02-07T05:15:54.129Z,1.80
2023-02-07T05:18:22.397Z,1.80
2023-02-07T05:20:52.447Z,1.80
2023-02-07T05:23:20.686Z,1.80
2023-02-07T05:25:49.958Z,1.80
2023-02-07T05:28:18.576Z,1.80
2023-02-07T05:30:48.354Z,1.90
2023-02-07T05:33:15.876Z,1.90
2023-02-07T05:35:46.445Z,1.90
2023-02-07T05:38:17.176Z,1.80
2023-02-07T05:40:45.916Z,1.80
2023-02-07T05:43:14.710Z,1.80
2023-02-07T05:45:42.916Z,1.80
2023-02-07T05:48:13.516Z,1.80
2023-02-07T05:50:41.807Z,1.90
2023-02-07T05:53:10.772Z,1.90
2023-02-07T05:55:39.445Z,1.90
2023-02-07T05:58:08.078Z,1.90
2023-02-07T06:00:36.608Z,1.90
2023-02-07T06:03:05.646Z,1.90
2023-02-07T06:05:35.548Z,1.90
2023-02-07T06:08:03.826Z,1.90
2023-02-07T06:10:33.130Z,1.90
2023-02-07T06:13:01.382Z,1.90
2023-02-07T06:15:29.777Z,2.00
2023-02-07T06:17:58.073Z,2.00
2023-02-07T06:20:26.496Z,2.00
2023-02-07T06:22:56.071Z,2.00
2023-02-07T06:25:24.721Z,2.00
2023-02-07T06:27:53.373Z,2.10
2023-02-07T06:30:21.776Z,2.10
2023-02-07T06:32:50.044Z,2.10
2023-02-07T06:35:18.744Z,2.10
2023-02-07T06:37:46.976Z,2.20
2023-02-07T06:40:16.575Z,2.20
2023-02-07T06:42:45.995Z,2.20
2023-02-07T06:45:14.429Z,2.20
2023-02-07T06:47:42.587Z,2.20
2023-02-07T06:50:11.117Z,2.20
2023-02-07T06:52:39.480Z,2.20
2023-02-07T06:55:08.500Z,2.20
2023-02-07T06:57:38.208Z,2.20
2023-02-07T07:00:08.010Z,2.20
2023-02-07T07:02:36.609Z,2.20
2023-02-07T07:05:05.211Z,2.20
2023-02-07T07:07:33.896Z,2.20
2023-02-07T07:10:02.119Z,2.20
2023-02-07T07:12:30.427Z,2.30
2023-02-07T07:15:00.703Z,2.20
2023-02-07T07:17:29.729Z,2.30
2023-02-07T07:19:59.287Z,2.30
2023-02-07T07:22:28.053Z,2.30
2023-02-07T07:24:56.227Z,2.30
2023-02-07T07:27:24.987Z,2.30
2023-02-07T07:29:53.694Z,2.30
2023-02-07T07:32:33.639Z,2.30
2023-02-07T07:35:02.843Z,2.30
2023-02-07T07:37:31.368Z,2.40
2023-02-07T07:39:59.688Z,2.30
2023-02-07T07:42:28.823Z,2.30
2023-02-07T07:44:57.135Z,2.30
2023-02-07T07:47:27.994Z,2.40
2023-02-07T07:49:56.570Z,2.40
2023-02-07T07:52:25.052Z,2.40
2023-02-07T07:54:53.788Z,2.40
2023-02-07T07:57:22.615Z,2.50
2023-02-07T07:59:50.882Z,2.50
2023-02-07T08:02:19.483Z,2.50
2023-02-07T08:04:49.592Z,2.50
2023-02-07T08:07:18.111Z,2.50
2023-02-07T08:09:46.369Z,2.50
2023-02-07T08:12:15.086Z,2.50
2023-02-07T08:14:43.270Z,2.50
2023-02-07T08:17:11.493Z,2.50
2023-02-07T08:19:40.205Z,2.60
2023-02-07T08:22:09.792Z,2.60
2023-02-07T08:24:37.930Z,2.60
2023-02-07T08:27:06.751Z,2.60
2023-02-07T08:29:35.219Z,2.60
2023-02-07T08:32:03.669Z,2.70
2023-02-07T08:34:37.811Z,2.70
2023-02-07T08:37:06.882Z,2.70
2023-02-07T08:39:37.472Z,2.60
2023-02-07T08:42:08.494Z,2.70
2023-02-07T08:44:37.564Z,2.70
2023-02-07T08:47:06.161Z,2.70
2023-02-07T08:49:34.812Z,2.70
2023-02-07T08:52:03.049Z,2.70
2023-02-07T08:54:31.404Z,2.70
2023-02-07T08:57:01.019Z,2.70
2023-02-07T08:59:29.379Z,2.70
2023-02-07T09:01:57.582Z,2.70
2023-02-07T09:04:27.470Z,2.70
2023-02-07T09:06:55.731Z,2.60
2023-02-07T09:09:25.186Z,2.70
2023-02-07T09:11:53.451Z,2.70
2023-02-07T09:14:22.929Z,2.70
2023-02-07T09:16:51.584Z,2.70
2023-02-07T09:19:19.940Z,2.70
2023-02-07T09:21:48.316Z,2.70
2023-02-07T09:24:16.682Z,2.70
2023-02-07T09:26:45.354Z,2.70
2023-02-07T09:29:14.970Z,2.70
2023-02-07T09:31:44.782Z,2.70
2023-02-07T09:34:13.548Z,2.70
2023-02-07T09:36:41.732Z,2.80
2023-02-07T09:39:10.086Z,2.80
2023-02-07T09:41:43.671Z,2.80
2023-02-07T09:44:17.583Z,2.80
2023-02-07T09:46:52.160Z,2.80
2023-02-07T09:49:31.078Z,2.80
2023-02-07T09:52:00.645Z,2.80
2023-02-07T09:54:34.999Z,2.80
2023-02-07T09:57:08.383Z,2.80
2023-02-07T09:59:44.950Z,2.80
2023-02-07T10:02:23.860Z,2.80
2023-02-07T10:04:56.192Z,2.80
2023-02-07T10:07:24.548Z,2.80
2023-02-07T10:09:53.213Z,2.80
2023-02-07T10:13:13.865Z,2.80
2023-02-07T10:15:57.397Z,2.90
2023-02-07T10:18:39.358Z,2.90
2023-02-07T10:21:15.725Z,2.90
2023-02-07T10:23:57.536Z,2.90
2023-02-07T10:26:35.121Z,2.90
2023-02-07T10:29:35.611Z,2.90
2023-02-07T10:32:14.483Z,2.90
2023-02-07T10:34:47.879Z,2.80
2023-02-07T10:37:21.057Z,2.80
2023-02-07T10:39:58.388Z,2.90
2023-02-07T10:42:28.535Z,2.80
2023-02-07T10:44:57.021Z,2.80
2023-02-07T10:47:26.268Z,2.80
2023-02-07T10:49:58.564Z,2.80
2023-02-07T10:52:35.187Z,2.80
2023-02-07T10:55:07.882Z,2.80
2023-02-07T10:57:36.282Z,2.90
2023-02-07T11:00:18.702Z,2.90
2023-02-07T11:02:50.283Z,2.90
2023-02-07T11:05:38.434Z,2.90
2023-02-07T11:08:18.392Z,2.90
2023-02-07T11:10:49.007Z,2.90
2023-02-07T11:13:20.282Z,2.90
2023-02-07T11:15:52.692Z,3.00
2023-02-07T11:18:45.607Z,2.90
2023-02-07T11:21:28.724Z,2.90
2023-02-07T11:24:00.861Z,2.90
2023-02-07T11:26:30.795Z,2.90
2023-02-07T11:29:08.025Z,2.90
2023-02-07T11:31:39.138Z,2.90
2023-02-07T11:34:38.486Z,2.90
2023-02-07T11:37:26.420Z,2.90
2023-02-07T11:39:57.226Z,2.90
2023-02-07T11:42:31.599Z,2.90
2023-02-07T11:45:05.361Z,2.90
2023-02-07T11:47:35.055Z,2.90
2023-02-07T11:50:08.181Z,2.90
2023-02-07T11:52:41.232Z,2.90
2023-02-07T11:55:18.359Z,2.90
2023-02-07T11:57:47.680Z,2.90
2023-02-07T12:00:22.991Z,2.90
2023-02-07T12:03:00.369Z,2.90
2023-02-07T12:05:31.495Z,2.90
2023-02-07T12:08:05.416Z,3.00
2023-02-07T12:10:37.621Z,2.90
2023-02-07T12:13:10.834Z,2.90
2023-02-07T12:15:43.180Z,2.90
2023-02-07T12:18:20.320Z,2.90
2023-02-07T12:20:54.844Z,3.00
2023-02-07T12:23:45.997Z,2.90
2023-02-07T12:26:22.724Z,2.90
2023-02-07T12:29:13.663Z,3.00
2023-02-07T12:31:52.098Z,3.00
2023-02-07T12:34:26.667Z,3.00
2023-02-07T12:37:00.533Z,2.90
2023-02-07T12:39:36.421Z,3.00
2023-02-07T12:42:23.261Z,3.00
2023-02-07T12:44:56.962Z,3.00
2023-02-07T12:47:38.449Z,3.00
2023-02-07T12:50:41.084Z,3.00
2023-02-07T12:53:24.911Z,3.00
2023-02-07T12:56:06.022Z,3.00
2023-02-07T12:58:53.295Z,3.00
2023-02-07T13:01:29.608Z,3.00
2023-02-07T13:04:20.780Z,3.00
2023-02-07T13:06:58.655Z,3.00
2023-02-07T13:09:37.827Z,3.00
2023-02-07T13:12:17.700Z,3.00
2023-02-07T13:15:06.934Z,3.00
2023-02-07T13:17:46.909Z,3.00
2023-02-07T13:20:26.215Z,3.00
2023-02-07T13:23:00.717Z,3.00
2023-02-07T13:25:33.506Z,3.00
2023-02-07T13:28:08.636Z,3.10
2023-02-07T13:30:37.776Z,3.00
2023-02-07T13:33:19.652Z,3.00
2023-02-07T13:35:49.189Z,3.10
2023-02-07T13:38:24.670Z,3.00
2023-02-07T13:41:00.011Z,3.00
2023-02-07T13:43:39.846Z,3.00
2023-02-07T13:46:24.023Z,3.10
2023-02-07T13:48:59.484Z,3.10
2023-02-07T13:51:36.542Z,3.10
2023-02-07T13:54:23.946Z,3.10
2023-02-07T13:57:15.347Z,3.10
2023-02-07T14:00:07.481Z,3.10
2023-02-07T14:02:45.765Z,3.20
2023-02-07T14:05:22.435Z,3.20
2023-02-07T14:08:00.699Z,3.20
2023-02-07T14:10:44.733Z,3.20
2023-02-07T14:13:31.190Z,3.10
2023-02-07T14:16:05.067Z,3.10
2023-02-07T14:18:42.996Z,3.20
2023-02-07T14:21:29.792Z,3.20
2023-02-07T14:24:18.946Z,3.20
2023-02-07T14:27:04.656Z,3.20
2023-02-07T14:29:58.020Z,3.30
2023-02-07T14:32:41.701Z,3.30
2023-02-07T14:35:38.812Z,3.20
2023-02-07T14:38:33.746Z,3.20
2023-02-07T14:41:11.379Z,3.20
2023-02-07T14:43:57.055Z,3.30
2023-02-07T14:46:37.588Z,3.20
2023-02-07T14:49:12.621Z,3.20
2023-02-07T14:51:45.058Z,3.20
2023-02-07T14:54:21.460Z,3.30
2023-02-07T14:56:54.874Z,3.20
2023-02-07T14:59:30.337Z,3.30
2023-02-07T15:01:59.058Z,3.30
2023-02-07T15:04:28.747Z,3.30
2023-02-07T15:06:56.885Z,3.30
2023-02-07T15:09:27.713Z,3.30
2023-02-07T15:12:10.481Z,3.30
2023-02-07T15:14:41.944Z,3.30
2023-02-07T15:17:11.008Z,3.40
2023-02-07T15:19:43.144Z,3.40
2023-02-07T15:22:25.666Z,3.40
2023-02-07T15:24:57.604Z,3.40
2023-02-07T15:27:28.191Z,3.40
2023-02-07T15:29:58.988Z,3.40
2023-02-07T15:32:30.981Z,3.50
2023-02-07T15:35:16.198Z,3.50
2023-02-07T15:37:46.425Z,3.40
2023-02-07T15:40:17.564Z,3.40
2023-02-07T15:42:56.435Z,3.40
2023-02-07T15:45:30.320Z,3.40
2023-02-07T15:48:00.502Z,3.40
2023-02-07T15:50:31.930Z,3.50
2023-02-07T15:53:02.527Z,3.50
2023-02-07T15:55:34.958Z,3.50
2023-02-07T15:58:04.794Z,3.40
2023-02-07T16:00:39.604Z,3.50
2023-02-07T16:03:13.000Z,3.50
2023-02-07T16:05:42.825Z,3.50
2023-02-07T16:08:30.748Z,3.40
2023-02-07T16:11:14.576Z,3.40
2023-02-07T16:13:47.541Z,3.40
2023-02-07T16:16:26.694Z,3.40
2023-02-07T16:19:06.385Z,3.40
2023-02-07T16:21:37.593Z,3.40
2023-02-07T16:24:08.221Z,3.40
2023-02-07T16:26:38.184Z,3.50
2023-02-07T16:29:07.701Z,3.40
2023-02-07T16:31:36.634Z,3.40
2023-02-07T16:34:04.972Z,3.40
2023-02-07T16:36:33.308Z,3.40
2023-02-07T16:39:03.176Z,3.40
2023-02-07T16:41:33.077Z,3.40
2023-02-07T16:44:02.747Z,3.50
2023-02-07T16:46:31.195Z,3.40
2023-02-07T16:48:59.688Z,3.40
2023-02-07T16:51:27.846Z,3.40
2023-02-07T16:53:56.253Z,3.50
2023-02-07T16:56:29.028Z,3.40
2023-02-07T16:58:57.346Z,3.40
2023-02-07T17:01:25.579Z,3.40
2023-02-07T17:03:54.327Z,3.40
2023-02-07T17:06:25.569Z,3.40
2023-02-07T17:08:56.569Z,3.40
2023-02-07T17:11:27.227Z,3.40
2023-02-07T17:13:57.150Z,3.40
2023-02-07T17:16:27.702Z,3.40
2023-02-07T17:18:56.011Z,3.40
2023-02-07T17:21:24.508Z,3.40
2023-02-07T17:23:53.058Z,3.40
2023-02-07T17:26:26.460Z,3.40
2023-02-07T17:28:55.549Z,3.40
2023-02-07T17:31:24.607Z,3.30
2023-02-07T17:33:53.219Z,3.40
2023-02-07T17:36:21.915Z,3.40
2023-02-07T17:38:50.077Z,3.40
2023-02-07T17:41:21.998Z,3.40
2023-02-07T17:43:51.524Z,3.40
2023-02-07T17:46:21.630Z,3.40
2023-02-07T17:48:51.110Z,3.40
2023-02-07T17:51:21.375Z,3.40
2023-02-07T17:53:49.934Z,3.40
2023-02-07T17:56:23.890Z,3.40
2023-02-07T17:58:54.812Z,3.40
2023-02-07T18:01:24.056Z,3.50
2023-02-07T18:03:54.623Z,3.50
2023-02-07T18:06:25.443Z,3.50
2023-02-07T18:08:56.330Z,3.40
2023-02-07T18:11:25.456Z,3.40
2023-02-07T18:13:57.394Z,3.50
2023-02-07T18:16:27.757Z,3.50
2023-02-07T18:18:57.946Z,3.50
2023-02-07T18:21:26.874Z,3.50
2023-02-07T18:23:56.367Z,3.50
2023-02-07T18:26:25.459Z,3.50
2023-02-07T18:28:55.159Z,3.60
2023-02-07T18:31:25.689Z,3.50
2023-02-07T18:33:54.808Z,3.50
2023-02-07T18:36:26.738Z,3.50
2023-02-07T18:38:54.950Z,3.50
2023-02-07T18:41:26.547Z,3.50
2023-02-07T18:43:56.242Z,3.50
2023-02-07T18:46:24.511Z,3.50
2023-02-07T18:48:57.165Z,3.50
2023-02-07T18:51:25.853Z,3.50
2023-02-07T18:53:54.985Z,3.50
2023-02-07T18:56:25.509Z,3.60
2023-02-07T18:58:56.771Z,3.60
2023-02-07T19:01:26.546Z,3.50
2023-02-07T19:03:56.346Z,3.60
2023-02-07T19:06:27.891Z,3.60
2023-02-07T19:08:56.920Z,3.60
2023-02-07T19:11:25.635Z,3.60
2023-02-07T19:13:56.140Z,3.60
2023-02-07T19:16:25.886Z,3.60
2023-02-07T19:18:54.183Z,3.60
2023-02-07T19:21:27.227Z,3.60
2023-02-07T19:23:56.371Z,3.60
2023-02-07T19:26:25.250Z,3.50
2023-02-07T19:28:55.528Z,3.40
2023-02-07T19:31:26.226Z,3.40
2023-02-07T19:33:54.956Z,3.40
2023-02-07T19:36:24.476Z,3.40
2023-02-07T19:38:54.146Z,3.40
2023-02-07T19:41:23.367Z,3.50
2023-02-07T19:43:51.994Z,3.50
2023-02-07T19:46:22.710Z,3.40
2023-02-07T19:48:51.798Z,3.50
2023-02-07T19:51:23.051Z,3.50
2023-02-07T19:53:53.999Z,3.50
2023-02-07T19:56:24.270Z,3.40
2023-02-07T19:58:54.981Z,3.40
2023-02-07T20:01:26.815Z,3.40
2023-02-07T20:03:55.910Z,3.40
2023-02-07T20:06:28.532Z,3.40
2023-02-07T20:08:57.578Z,3.30
2023-02-07T20:11:26.017Z,3.30
2023-02-07T20:13:56.780Z,3.40
2023-02-07T20:16:27.366Z,3.40
2023-02-07T20:18:56.496Z,3.30
2023-02-07T20:21:26.969Z,3.30
2023-02-07T20:23:56.927Z,3.20
2023-02-07T20:26:26.583Z,3.10
2023-02-07T20:28:55.771Z,3.20
2023-02-07T20:31:27.717Z,3.20
2023-02-07T20:33:57.597Z,3.10
2023-02-07T20:36:26.662Z,3.10
2023-02-07T20:38:57.321Z,2.90
2023-02-07T20:41:30.267Z,2.90
2023-02-07T20:44:03.057Z,2.70
2023-02-07T20:46:36.187Z,2.60
2023-02-07T20:49:06.751Z,2.40
2023-02-07T20:51:38.202Z,2.40
2023-02-07T20:54:08.238Z,2.30
2023-02-07T20:56:37.275Z,2.30
2023-02-07T20:59:06.477Z,2.20
2023-02-07T21:01:37.181Z,2.10
2023-02-07T21:04:06.989Z,2.00
2023-02-07T21:06:36.312Z,2.00
2023-02-07T21:09:08.227Z,1.90
2023-02-07T21:11:40.583Z,1.90
2023-02-07T21:14:11.766Z,1.80
2023-02-07T21:16:41.769Z,1.80
2023-02-07T21:19:11.082Z,1.90
2023-02-07T21:21:39.624Z,1.80
2023-02-07T21:24:08.520Z,1.80
2023-02-07T21:26:37.291Z,1.80
2023-02-07T21:29:06.436Z,1.90
2023-02-07T21:31:36.187Z,1.90
2023-02-07T21:34:06.771Z,1.90
2023-02-07T21:36:38.371Z,1.80
2023-02-07T21:39:10.321Z,1.70
2023-02-07T21:41:40.609Z,1.70
2023-02-07T21:44:10.422Z,1.80
2023-02-07T21:46:40.593Z,1.80
2023-02-07T21:49:14.290Z,1.90
2023-02-07T21:51:43.597Z,1.90
2023-02-07T21:54:11.947Z,2.00
2023-02-07T21:56:42.605Z,2.10
2023-02-07T21:59:13.622Z,2.10
2023-02-07T22:01:42.523Z,2.20
2023-02-07T22:04:13.231Z,2.30
2023-02-07T22:06:43.758Z,2.30
2023-02-07T22:09:14.074Z,2.30
2023-02-07T22:11:42.847Z,2.30
2023-02-07T22:14:12.562Z,2.30
2023-02-07T22:16:40.967Z,2.30
2023-02-07T22:19:13.145Z,2.30
2023-02-07T22:21:41.547Z,2.30
2023-02-07T22:24:12.277Z,2.20
2023-02-07T22:26:41.147Z,2.10
2023-02-07T22:29:10.189Z,2.10
2023-02-07T22:31:40.569Z,2.10
2023-02-07T22:34:10.966Z,2.10
2023-02-07T22:36:43.171Z,2.10
2023-02-07T22:39:14.022Z,2.10
2023-02-07T22:41:42.746Z,2.10
2023-02-07T22:44:11.589Z,2.10
2023-02-07T22:46:40.072Z,2.10
2023-02-07T22:49:08.608Z,2.20
2023-02-07T22:51:38.152Z,2.20
2023-02-07T22:54:11.231Z,2.20
2023-02-07T22:56:39.675Z,2.20
2023-02-07T22:59:08.053Z,2.20
2023-02-07T23:01:39.185Z,2.20
2023-02-07T23:04:09.723Z,2.20
2023-02-07T23:06:38.497Z,2.30
2023-02-07T23:09:08.410Z,2.20
2023-02-07T23:11:37.162Z,2.30
2023-02-07T23:14:07.017Z,2.30
2023-02-07T23:16:36.167Z,2.30
2023-02-07T23:19:06.983Z,2.30
2023-02-07T23:21:35.721Z,2.40
2023-02-07T23:24:04.630Z,2.50
2023-02-07T23:26:35.566Z,2.40
2023-02-07T23:29:04.285Z,2.30
2023-02-07T23:31:32.980Z,2.20
2023-02-07T23:34:01.471Z,2.30
2023-02-07T23:36:29.748Z,2.30
2023-02-07T23:38:58.192Z,2.30
2023-02-07T23:41:26.449Z,2.30
2023-02-07T23:43:56.888Z,2.40
2023-02-07T23:46:25.244Z,2.40
2023-02-07T23:48:53.441Z,2.50
2023-02-07T23:51:21.654Z,2.60
2023-02-07T23:53:50.076Z,2.60
2023-02-07T23:56:20.411Z,2.60
2023-02-07T23:58:49.985Z,2.70
